Time;durP1;ratioP1;P1;durP2;ratioP2;P2;SDS_P1;SDS_P2;PMS_P1;PMS_P2;Temp;Humidity;BMP_temperature;BMP_pressure;BME280_temperature;BME280_humidity;BME280_pressure;Samples;Min_cycle;Max_cycle;Signal;HPM_P1;HPM_P2
2023/07/10 00:01:40;;;;;;;2.03;1.30;;;18.00;99.90;;;;;;5110795;28;20115;-65
2023/07/10 00:04:24;;;;;;;5.20;1.27;;;18.00;99.90;;;;;;5117081;28;20568;-66
2023/07/10 00:06:50;;;;;;;2.38;1.23;;;18.00;99.90;;;;;;5116885;28;20688;-66
2023/07/10 00:09:18;;;;;;;1.17;1.00;;;18.00;99.90;;;;;;5116021;28;20028;-65
2023/07/10 00:11:45;;;;;;;2.83;1.48;;;17.90;99.90;;;;;;5111799;28;20027;-65
2023/07/10 00:14:22;;;;;;;4.82;1.30;;;17.90;99.90;;;;;;5112795;28;20448;-65
2023/07/10 00:16:50;;;;;;;8.68;1.23;;;18.00;99.90;;;;;;5113496;28;20327;-66
2023/07/10 00:19:16;;;;;;;2.03;1.30;;;17.90;99.90;;;;;;5114852;28;20031;-65
2023/07/10 00:21:42;;;;;;;2.83;1.38;;;17.90;99.90;;;;;;5115582;28;20112;-65
2023/07/10 00:24:08;;;;;;;3.93;1.67;;;18.00;99.90;;;;;;5116393;28;20059;-65
2023/07/10 00:26:38;;;;;;;4.15;1.65;;;18.00;99.90;;;;;;5115886;28;20028;-65
2023/07/10 00:29:19;;;;;;;2.05;1.02;;;18.00;99.90;;;;;;5099426;28;20036;-65
2023/07/10 00:31:45;;;;;;;2.33;1.40;;;17.90;99.90;;;;;;5117310;28;20065;-65
2023/07/10 00:34:15;;;;;;;2.80;1.50;;;17.90;99.90;;;;;;5116398;28;20077;-65
2023/07/10 00:36:41;;;;;;;2.22;1.33;;;17.80;99.90;;;;;;5116607;28;20028;-65
2023/07/10 00:39:23;;;;;;;4.05;1.55;;;17.80;99.90;;;;;;5116497;28;20031;-66
2023/07/10 00:42:02;;;;;;;6.32;1.30;;;17.80;99.90;;;;;;5109637;28;20032;-66
2023/07/10 00:44:43;;;;;;;3.53;1.73;;;17.80;99.90;;;;;;5116585;28;20381;-66
2023/07/10 00:47:24;;;;;;;3.50;1.85;;;17.80;99.90;;;;;;5116754;28;20028;-66
2023/07/10 00:50:15;;;;;;;4.60;1.88;;;17.80;99.90;;;;;;5097973;28;20028;-66
2023/07/10 00:52:47;;;;;;;5.70;2.63;;;17.80;99.90;;;;;;5109524;28;20035;-65
2023/07/10 00:55:28;;;;;;;5.95;3.17;;;17.80;99.90;;;;;;5114428;28;20020;-65
2023/07/10 00:58:14;;;;;;;5.60;3.33;;;17.80;99.90;;;;;;5093258;28;20080;-65
2023/07/10 01:00:57;;;;;;;9.13;4.15;;;17.80;99.90;;;;;;5114719;27;20115;-65
2023/07/10 01:03:25;;;;;;;4.88;3.30;;;17.80;99.90;;;;;;5115179;28;20035;-65
2023/07/10 01:05:51;;;;;;;8.43;3.80;;;17.80;99.90;;;;;;5113779;28;20367;-66
2023/07/10 01:08:17;;;;;;;8.43;4.13;;;17.80;99.90;;;;;;5114408;28;20016;-65
2023/07/10 01:10:42;;;;;;;6.87;4.50;;;17.80;99.90;;;;;;5115208;27;20066;-66
2023/07/10 01:13:09;;;;;;;10.97;5.33;;;17.90;99.90;;;;;;5112777;28;20717;-65
2023/07/10 01:15:35;;;;;;;;;;;17.90;99.90;;;;;;5095319;28;20078;-66
2023/07/10 01:18:02;;;;;;;12.20;6.50;;;17.80;99.90;;;;;;5116320;28;19912;-66
2023/07/10 01:20:46;;;;;;;8.40;5.22;;;17.90;99.90;;;;;;5113078;28;20341;-65
2023/07/10 01:23:12;;;;;;;10.38;6.20;;;17.80;99.90;;;;;;5114732;28;20020;-65
2023/07/10 01:25:45;;;;;;;9.27;5.90;;;17.80;99.90;;;;;;5114918;28;20067;-65
2023/07/10 01:28:16;;;;;;;8.00;5.35;;;17.80;99.90;;;;;;5114193;28;20035;-81
2023/07/10 01:30:43;;;;;;;9.40;5.15;;;17.80;99.90;;;;;;5114179;28;20398;-65
2023/07/10 01:33:40;;;;;;;7.97;5.07;;;17.80;99.90;;;;;;5113300;28;20032;-65
2023/07/10 01:36:08;;;;;;;9.05;5.22;;;17.80;99.90;;;;;;5089929;28;20063;-65
2023/07/10 01:38:45;;;;;;;9.60;5.38;;;17.80;99.90;;;;;;5114943;28;20031;-65
2023/07/10 01:41:29;;;;;;;5.82;3.17;;;17.80;99.90;;;;;;5114842;28;20039;-66
2023/07/10 01:43:55;;;;;;;4.90;3.40;;;17.70;99.90;;;;;;5114086;28;20019;-65
2023/07/10 01:46:24;;;;;;;6.13;3.57;;;17.80;99.90;;;;;;5114848;28;20077;-84
2023/07/10 01:48:54;;;;;;;5.70;3.53;;;17.80;99.90;;;;;;5114985;28;20028;-65
2023/07/10 01:51:22;;;;;;;5.15;3.05;;;17.80;99.90;;;;;;5112838;28;20042;-65
2023/07/10 01:53:47;;;;;;;6.85;2.97;;;17.80;99.90;;;;;;5114244;28;20016;-81
2023/07/10 01:56:17;;;;;;;6.13;3.33;;;17.80;99.90;;;;;;5113445;27;20077;-65
2023/07/10 01:58:42;;;;;;;6.85;3.35;;;17.80;99.90;;;;;;5113146;28;20023;-65
2023/07/10 02:01:09;;;;;;;5.00;2.70;;;17.70;99.90;;;;;;5114509;28;20043;-65
2023/07/10 02:03:35;;;;;;;5.30;3.10;;;17.70;99.90;;;;;;5114423;28;20040;-66
2023/07/10 02:06:01;;;;;;;5.03;3.10;;;17.60;99.90;;;;;;5114527;28;20024;-65
2023/07/10 02:08:27;;;;;;;5.60;2.53;;;17.60;99.90;;;;;;5114962;28;20040;-65
2023/07/10 02:10:53;;;;;;;7.05;3.40;;;17.60;99.90;;;;;;5113728;28;20513;-65
2023/07/10 02:13:19;;;;;;;3.70;2.70;;;17.50;99.90;;;;;;5112539;27;20134;-66
2023/07/10 02:15:44;;;;;;;8.38;2.83;;;17.50;99.90;;;;;;5113072;28;20043;-65
2023/07/10 02:18:10;;;;;;;6.67;3.50;;;17.50;99.90;;;;;;5114017;28;20138;-65
2023/07/10 02:20:36;;;;;;;6.97;3.87;;;17.50;99.90;;;;;;5114383;28;20422;-66
2023/07/10 02:23:02;;;;;;;6.33;2.60;;;17.50;99.90;;;;;;5112009;28;20462;-65
2023/07/10 02:25:27;;;;;;;5.23;2.80;;;17.50;99.90;;;;;;5112702;28;20038;-65
2023/07/10 02:27:53;;;;;;;4.47;2.87;;;17.50;99.90;;;;;;5114804;28;20459;-73
2023/07/10 02:30:19;;;;;;;3.03;2.47;;;17.50;99.90;;;;;;5114380;28;20118;-65
2023/07/10 02:32:44;;;;;;;8.80;3.40;;;17.50;99.90;;;;;;5114995;28;20041;-65
2023/07/10 02:35:12;;;;;;;8.77;2.90;;;17.50;99.90;;;;;;5114305;28;20657;-65
2023/07/10 02:37:38;;;;;;;4.18;2.53;;;17.50;99.90;;;;;;5100958;28;20398;-65
2023/07/10 02:40:04;;;;;;;5.53;2.50;;;17.50;99.90;;;;;;5114420;28;20032;-65
2023/07/10 02:42:30;;;;;;;5.53;2.65;;;17.50;99.90;;;;;;5114245;28;20051;-65
2023/07/10 02:44:56;;;;;;;9.53;3.27;;;17.40;99.90;;;;;;5101643;28;20410;-65
2023/07/10 02:47:22;;;;;;;5.37;2.90;;;17.40;99.90;;;;;;5092378;28;20373;-65
2023/07/10 02:49:47;;;;;;;9.73;3.40;;;17.40;99.90;;;;;;5103276;28;20078;-65
2023/07/10 02:52:13;;;;;;;6.67;2.77;;;17.40;99.90;;;;;;5110433;28;20103;-66
2023/07/10 02:54:39;;;;;;;5.90;3.10;;;17.40;99.90;;;;;;5114445;28;20015;-82
2023/07/10 02:57:05;;;;;;;5.33;3.10;;;17.30;99.90;;;;;;5114754;28;20330;-66
2023/07/10 02:59:30;;;;;;;9.23;3.30;;;17.30;99.90;;;;;;5114075;28;20022;-65
2023/07/10 03:01:57;;;;;;;5.40;2.87;;;17.30;99.90;;;;;;5111367;28;20028;-66
2023/07/10 03:04:23;;;;;;;7.63;3.15;;;17.20;99.90;;;;;;5113009;28;20042;-81
2023/07/10 03:06:49;;;;;;;4.00;2.97;;;17.20;99.90;;;;;;5112588;28;20114;-66
2023/07/10 03:09:16;;;;;;;7.65;3.03;;;17.10;99.90;;;;;;5113981;28;20153;-65
2023/07/10 03:11:41;;;;;;;8.15;3.60;;;17.10;99.90;;;;;;5114335;28;20360;-82
2023/07/10 03:14:07;;;;;;;6.50;3.23;;;17.10;99.90;;;;;;5112622;28;20024;-65
2023/07/10 03:16:33;;;;;;;7.30;3.23;;;17.10;99.90;;;;;;5108624;28;20031;-65
2023/07/10 03:18:58;;;;;;;6.33;3.10;;;17.10;99.90;;;;;;5111222;28;20377;-66
2023/07/10 03:21:25;;;;;;;6.37;3.13;;;17.10;99.90;;;;;;5112789;28;20027;-66
2023/07/10 03:23:51;;;;;;;6.82;4.25;;;17.10;99.90;;;;;;5114708;28;20093;-65
2023/07/10 03:26:17;;;;;;;6.43;3.28;;;17.10;99.90;;;;;;5111245;28;20119;-66
2023/07/10 03:28:43;;;;;;;5.97;3.03;;;17.00;99.90;;;;;;5096909;28;20309;-84
2023/07/10 03:31:08;;;;;;;5.67;3.20;;;17.00;99.90;;;;;;5116029;28;20118;-66
2023/07/10 03:33:34;;;;;;;3.60;2.80;;;17.00;99.90;;;;;;5116655;28;20089;-66
2023/07/10 03:36:03;;;;;;;6.38;3.42;;;17.00;99.90;;;;;;5116342;28;20264;-66
2023/07/10 03:38:29;;;;;;;5.68;3.45;;;17.00;99.90;;;;;;5117333;28;20108;-66
2023/07/10 03:40:56;;;;;;;8.13;3.60;;;17.00;99.90;;;;;;5115650;28;20108;-66
2023/07/10 03:43:23;;;;;;;7.90;3.47;;;16.90;99.90;;;;;;5117568;28;20430;-66
2023/07/10 03:45:48;;;;;;;6.28;3.42;;;17.00;99.90;;;;;;5115639;28;20294;-86
2023/07/10 03:48:14;;;;;;;6.43;3.20;;;17.00;99.90;;;;;;5116204;28;20066;-66
2023/07/10 03:50:40;;;;;;;6.45;3.15;;;17.10;99.90;;;;;;5112266;28;20024;-66
2023/07/10 03:53:06;;;;;;;6.00;3.08;;;17.00;99.90;;;;;;5111347;28;20032;-66
2023/07/10 03:55:32;;;;;;;7.20;3.13;;;17.00;99.90;;;;;;5113655;28;20016;-66
2023/07/10 03:57:58;;;;;;;6.10;3.07;;;17.00;99.90;;;;;;5115022;27;20278;-66
2023/07/10 04:00:24;;;;;;;4.73;2.60;;;17.00;99.90;;;;;;5116543;28;20366;-66
2023/07/10 04:02:49;;;;;;;8.70;2.83;;;17.00;99.90;;;;;;5116535;28;20038;-81
2023/07/10 04:05:17;;;;;;;5.90;2.33;;;17.00;99.90;;;;;;5116099;28;20024;-66
2023/07/10 04:07:45;;;;;;;7.45;2.42;;;17.00;99.90;;;;;;5115053;28;20032;-66
2023/07/10 04:10:11;;;;;;;4.32;2.45;;;17.00;99.90;;;;;;5116553;28;20102;-66
2023/07/10 04:12:40;;;;;;;5.63;2.77;;;17.00;99.90;;;;;;5113242;28;20665;-66
2023/07/10 04:15:07;;;;;;;7.65;2.70;;;17.00;99.90;;;;;;5115407;28;20047;-66
2023/07/10 04:17:32;;;;;;;7.90;3.10;;;17.10;99.90;;;;;;5115780;28;20095;-65
2023/07/10 04:19:58;;;;;;;8.30;3.03;;;17.10;99.90;;;;;;5115481;28;20161;-81
2023/07/10 04:22:24;;;;;;;6.50;2.73;;;17.10;99.90;;;;;;5116155;28;20024;-65
2023/07/10 04:24:49;;;;;;;6.03;1.93;;;17.20;99.90;;;;;;5117700;28;20026;-78
2023/07/10 04:27:15;;;;;;;6.43;2.87;;;17.20;99.90;;;;;;5115650;28;20901;-66
2023/07/10 04:29:41;;;;;;;4.87;2.40;;;17.20;99.90;;;;;;5116368;28;20039;-66
2023/07/10 04:32:09;;;;;;;4.37;2.70;;;17.20;99.90;;;;;;5116388;28;20023;-65
2023/07/10 04:34:34;;;;;;;8.32;2.22;;;17.20;99.90;;;;;;5117175;28;20381;-65
2023/07/10 04:37:01;;;;;;;7.37;2.37;;;17.20;99.90;;;;;;5116169;28;20062;-65
2023/07/10 04:39:26;;;;;;;4.93;2.60;;;17.30;99.90;;;;;;5116708;28;20032;-66
2023/07/10 04:41:52;;;;;;;8.53;2.90;;;17.30;99.90;;;;;;5116983;28;20024;-81
2023/07/10 04:44:18;;;;;;;3.37;2.23;;;17.30;99.90;;;;;;5116167;28;20047;-65
2023/07/10 04:46:43;;;;;;;6.90;2.60;;;17.30;99.90;;;;;;5116936;28;20023;-69
2023/07/10 04:49:09;;;;;;;6.53;2.73;;;17.30;99.90;;;;;;5116112;28;20101;-65
2023/07/10 04:51:35;;;;;;;10.47;3.33;;;17.30;99.90;;;;;;5115329;28;20027;-65
2023/07/10 04:54:00;;;;;;;6.60;2.60;;;17.40;99.90;;;;;;5111273;28;20019;-65
2023/07/10 04:56:26;;;;;;;10.37;2.73;;;17.30;99.90;;;;;;5116854;28;20012;-66
2023/07/10 04:58:56;;;;;;;5.50;2.87;;;17.40;99.90;;;;;;5116099;28;20024;-80
2023/07/10 05:01:26;;;;;;;6.88;3.10;;;17.40;99.90;;;;;;5111789;28;20032;-65
2023/07/10 05:03:52;;;;;;;5.25;2.50;;;17.40;99.90;;;;;;5115973;28;20118;-80
2023/07/10 05:06:19;;;;;;;6.95;2.65;;;17.40;99.90;;;;;;5113825;27;20018;-65
2023/07/10 05:08:45;;;;;;;5.30;2.38;;;17.50;99.90;;;;;;5115353;28;20035;-65
2023/07/10 05:11:11;;;;;;;;;;;17.50;99.90;;;;;;5116161;28;20059;-67
2023/07/10 05:13:37;;;;;;;4.68;1.90;;;17.50;99.90;;;;;;5113999;27;19910;-65
2023/07/10 05:16:03;;;;;;;5.03;2.10;;;17.60;99.90;;;;;;5112930;28;20035;-66
2023/07/10 05:18:29;;;;;;;4.90;2.05;;;17.60;99.90;;;;;;5114675;27;20471;-65
2023/07/10 05:20:56;;;;;;;5.13;2.60;;;17.60;99.90;;;;;;5114838;28;20043;-67
2023/07/10 05:23:22;;;;;;;;;;;17.60;99.90;;;;;;5115147;28;20462;-66
2023/07/10 05:25:55;;;;;;;5.03;1.98;;;17.70;99.90;;;;;;5116162;28;19990;-65
2023/07/10 05:28:21;;;;;;;3.72;1.48;;;17.70;99.90;;;;;;5116182;28;20035;-78
2023/07/10 05:30:46;;;;;;;6.23;2.00;;;17.70;99.90;;;;;;5114489;28;20022;-66
2023/07/10 05:33:12;;;;;;;8.27;2.37;;;17.70;99.90;;;;;;5115664;28;20024;-65
2023/07/10 05:35:48;;;;;;;3.37;1.90;;;17.80;99.90;;;;;;5115210;28;20027;-66
2023/07/10 05:38:13;;;;;;;5.57;2.28;;;17.80;99.90;;;;;;5112115;28;20445;-65
2023/07/10 05:40:42;;;;;;;2.27;1.93;;;17.90;99.90;;;;;;5115200;28;20043;-65
2023/07/10 05:43:08;;;;;;;8.43;2.28;;;17.90;99.90;;;;;;5115638;28;20444;-66
2023/07/10 05:45:34;;;;;;;5.77;2.53;;;17.90;99.90;;;;;;5114635;28;20036;-64
2023/07/10 05:47:59;;;;;;;6.47;2.43;;;17.90;99.90;;;;;;5114972;28;20027;-66
2023/07/10 05:50:25;;;;;;;9.70;2.70;;;17.90;99.90;;;;;;5114991;28;20024;-65
2023/07/10 05:52:50;;;;;;;3.30;2.40;;;18.00;99.90;;;;;;5090982;28;20090;-85
2023/07/10 05:55:16;;;;;;;4.67;2.13;;;18.00;99.90;;;;;;5115804;28;20039;-66
2023/07/10 05:57:42;;;;;;;3.87;2.37;;;18.00;99.90;;;;;;5113373;28;20027;-66
2023/07/10 06:00:08;;;;;;;2.37;1.83;;;18.00;99.90;;;;;;5115460;28;20027;-65
2023/07/10 06:02:34;;;;;;;4.78;2.25;;;18.00;99.90;;;;;;5114321;28;20490;-66
2023/07/10 06:04:59;;;;;;;8.97;2.30;;;18.10;99.90;;;;;;5114992;28;20110;-65
2023/07/10 06:07:25;;;;;;;3.97;2.43;;;18.10;99.90;;;;;;5115431;28;20050;-66
2023/07/10 06:09:51;;;;;;;6.03;2.00;;;18.20;99.90;;;;;;5114319;28;20027;-78
2023/07/10 06:12:16;;;;;;;6.63;2.17;;;18.30;99.90;;;;;;5114308;28;20069;-66
2023/07/10 06:14:42;;;;;;;3.97;2.23;;;18.30;99.90;;;;;;5113791;28;20050;-65
2023/07/10 06:17:08;;;;;;;9.13;2.20;;;18.30;99.90;;;;;;5114032;28;20039;-65
2023/07/10 06:19:33;;;;;;;6.83;1.67;;;18.30;99.90;;;;;;5112857;28;20478;-73
2023/07/10 06:22:11;;;;;;;5.00;2.53;;;18.40;99.90;;;;;;5114563;28;20032;-67
2023/07/10 06:24:38;;;;;;;3.60;2.00;;;18.40;99.90;;;;;;5115423;28;20357;-66
2023/07/10 06:27:05;;;;;;;10.40;2.38;;;18.40;99.90;;;;;;5113943;28;20128;-66
2023/07/10 06:29:33;;;;;;;6.55;2.15;;;18.50;99.90;;;;;;5114056;28;20042;-66
2023/07/10 06:31:58;;;;;;;5.63;2.45;;;18.50;99.90;;;;;;5113075;28;20034;-66
2023/07/10 06:34:24;;;;;;;5.40;1.63;;;18.50;99.90;;;;;;5113252;28;20024;-66
2023/07/10 06:36:50;;;;;;;7.13;2.13;;;18.50;99.90;;;;;;5112613;28;20467;-65
2023/07/10 06:39:15;;;;;;;5.17;2.47;;;18.60;99.90;;;;;;5112983;28;20410;-66
2023/07/10 06:41:41;;;;;;;4.37;2.13;;;18.60;99.90;;;;;;5114658;28;20059;-66
2023/07/10 06:44:07;;;;;;;4.60;1.47;;;18.60;99.90;;;;;;5114254;28;20100;-84
2023/07/10 06:46:33;;;;;;;7.00;1.77;;;18.70;99.90;;;;;;5114092;28;20662;-84
2023/07/10 06:48:58;;;;;;;3.97;1.83;;;18.80;99.90;;;;;;5113798;28;20035;-66
2023/07/10 06:51:24;;;;;;;5.93;1.47;;;18.80;99.90;;;;;;5113903;28;20292;-66
2023/07/10 06:53:50;;;;;;;1.90;1.17;;;18.90;99.90;;;;;;5110806;28;20052;-65
2023/07/10 06:56:15;;;;;;;2.93;1.40;;;18.90;99.90;;;;;;5113176;28;20084;-67
2023/07/10 06:58:41;;;;;;;7.73;1.93;;;19.00;99.90;;;;;;5114645;28;20031;-66
2023/07/10 07:01:07;;;;;;;3.97;1.63;;;19.00;99.90;;;;;;5112622;28;20471;-75
2023/07/10 07:03:33;;;;;;;6.30;1.90;;;19.10;99.90;;;;;;5114334;28;20077;-65
2023/07/10 07:05:58;;;;;;;7.37;2.00;;;19.10;99.90;;;;;;5108161;28;20130;-66
2023/07/10 07:08:25;;;;;;;5.97;1.90;;;19.20;99.90;;;;;;5117918;28;20555;-85
2023/07/10 07:10:52;;;;;;;11.32;2.65;;;19.20;99.90;;;;;;5121688;27;20417;-79
2023/07/10 07:13:19;;;;;;;6.32;1.70;;;19.20;99.90;;;;;;5118218;27;20023;-66
2023/07/10 07:15:51;;;;;;;2.95;1.45;;;19.30;99.90;;;;;;5118448;28;20040;-65
2023/07/10 07:18:17;;;;;;;5.57;1.30;;;19.30;99.90;;;;;;5117809;28;20108;-67
2023/07/10 07:20:43;;;;;;;8.68;1.85;;;19.40;99.90;;;;;;5118839;28;20046;-65
2023/07/10 07:23:09;;;;;;;5.77;1.60;;;19.50;99.90;;;;;;5100157;28;20031;-66
2023/07/10 07:25:34;;;;;;;8.80;1.63;;;19.50;99.90;;;;;;5116824;28;20028;-66
2023/07/10 07:28:03;;;;;;;3.80;1.23;;;19.60;99.90;;;;;;5114645;28;20028;-65
2023/07/10 07:30:29;;;;;;;3.92;1.88;;;19.60;99.90;;;;;;5115437;28;20016;-66
2023/07/10 07:32:56;;;;;;;4.88;1.60;;;19.70;99.90;;;;;;5117430;28;20034;-67
2023/07/10 07:35:22;;;;;;;10.65;1.63;;;19.80;99.90;;;;;;5116992;28;20042;-81
2023/07/10 07:37:48;;;;;;;2.67;1.77;;;19.90;99.90;;;;;;5116480;28;20322;-66
2023/07/10 07:40:16;;;;;;;4.00;1.30;;;20.10;99.90;;;;;;5099843;28;20028;-67
2023/07/10 07:42:43;;;;;;;6.60;1.30;;;20.10;99.90;;;;;;5114891;28;20371;-75
2023/07/10 07:45:09;;;;;;;3.90;1.67;;;20.20;99.90;;;;;;5117916;28;20402;-84
2023/07/10 07:47:35;;;;;;;8.77;1.97;;;20.30;99.90;;;;;;5114053;28;20103;-66
2023/07/10 07:50:00;;;;;;;8.83;1.83;;;20.40;99.90;;;;;;5118920;27;20276;-66
2023/07/10 07:52:26;;;;;;;2.10;1.37;;;20.50;99.90;;;;;;5091708;28;20038;-66
2023/07/10 07:54:52;;;;;;;8.47;1.50;;;20.60;99.90;;;;;;5116327;28;20329;-81
2023/07/10 07:57:18;;;;;;;4.30;1.57;;;20.70;99.90;;;;;;5104765;28;20075;-66
2023/07/10 07:59:43;;;;;;;4.82;1.60;;;20.80;99.90;;;;;;5103616;28;20417;-66
2023/07/10 08:02:09;;;;;;;4.30;1.67;;;20.90;99.90;;;;;;5114151;28;20032;-66
2023/07/10 08:04:36;;;;;;;5.38;1.50;;;21.00;99.90;;;;;;5113357;28;20030;-66
2023/07/10 08:07:01;;;;;;;8.10;1.80;;;21.10;99.90;;;;;;5115707;28;20032;-65
2023/07/10 08:09:27;;;;;;;8.23;1.60;;;21.10;99.90;;;;;;5113373;27;20337;-65
2023/07/10 08:11:53;;;;;;;6.77;1.37;;;21.20;99.90;;;;;;5115250;27;20709;-66
2023/07/10 08:14:18;;;;;;;6.53;1.57;;;21.30;99.90;;;;;;5113686;27;20360;-67
2023/07/10 08:16:44;;;;;;;6.37;1.27;;;21.40;99.90;;;;;;5116885;28;20291;-67
2023/07/10 08:19:10;;;;;;;4.83;1.57;;;21.50;99.90;;;;;;5114239;27;20461;-65
2023/07/10 08:21:38;;;;;;;7.40;1.60;;;21.60;99.90;;;;;;5112856;27;20330;-67
2023/07/10 08:24:04;;;;;;;5.07;1.70;;;21.70;99.90;;;;;;5096195;28;20031;-66
2023/07/10 08:26:32;;;;;;;10.15;1.55;;;21.70;99.90;;;;;;5116691;28;20027;-81
2023/07/10 08:28:58;;;;;;;7.78;1.42;;;21.80;99.90;;;;;;5116559;28;20437;-66
2023/07/10 08:31:25;;;;;;;6.93;1.50;;;21.90;99.90;;;;;;5116904;28;20030;-66
2023/07/10 08:33:50;;;;;;;3.38;1.73;;;22.00;99.90;;;;;;5116195;28;20032;-79
2023/07/10 08:36:16;;;;;;;3.77;1.13;;;22.00;99.90;;;;;;5095462;28;20041;-68
2023/07/10 08:38:42;;;;;;;3.97;1.30;;;22.00;99.90;;;;;;5110693;28;20032;-68
2023/07/10 08:41:20;;;;;;;4.50;1.23;;;22.10;99.90;;;;;;5099282;28;20118;-66
2023/07/10 08:43:46;;;;;;;3.92;1.15;;;22.20;99.90;;;;;;5097881;28;20111;-66
2023/07/10 08:46:24;;;;;;;2.47;1.00;;;22.30;99.90;;;;;;5117136;28;20318;-67
2023/07/10 08:49:13;;;;;;;4.47;1.30;;;22.40;99.90;;;;;;5114652;28;20032;-67
2023/07/10 08:51:47;;;;;;;3.92;1.23;;;22.50;99.90;;;;;;5114569;28;20031;-67
2023/07/10 08:54:18;;;;;;;4.85;1.20;;;22.70;99.90;;;;;;5110226;28;20104;-67
2023/07/10 08:57:11;;;;;;;2.67;0.90;;;22.80;99.90;;;;;;5116802;28;20049;-67
2023/07/10 09:00:00;;;;;;;6.75;1.10;;;22.80;99.90;;;;;;5116322;28;20031;-68
2023/07/10 09:03:03;;;;;;;4.75;1.05;;;22.90;99.90;;;;;;5115153;28;20054;-66
2023/07/10 09:05:30;;;;;;;6.75;1.60;;;23.00;99.90;;;;;;5116626;28;20425;-67
2023/07/10 09:08:02;;;;;;;4.88;1.10;;;23.10;99.90;;;;;;5112669;28;20322;-67
2023/07/10 09:10:36;;;;;;;3.42;0.80;;;23.10;99.90;;;;;;5106592;28;20429;-66
2023/07/10 09:13:03;;;;;;;3.65;1.13;;;23.10;99.90;;;;;;5111053;28;20068;-67
2023/07/10 09:15:32;;;;;;;;;;;23.10;99.90;;;;;;5114654;28;20454;-66
2023/07/10 09:18:34;;;;;;;1.50;0.63;;;23.10;99.90;;;;;;5115636;28;19994;-66
2023/07/10 09:21:16;;;;;;;6.80;1.52;;;23.30;99.90;;;;;;5087349;28;20097;-81
2023/07/10 09:23:44;;;;;;;4.28;1.15;;;23.30;99.90;;;;;;5115065;27;20027;-67
2023/07/10 09:26:17;;;;;;;3.55;1.13;;;23.30;99.90;;;;;;5115506;28;20031;-67
2023/07/10 09:29:01;;;;;;;2.70;0.70;;;23.20;99.90;;;;;;5115363;28;20038;-68
2023/07/10 09:31:48;;;;;;;2.00;0.60;;;23.30;99.90;;;;;;5098127;28;20077;-67
2023/07/10 09:34:21;;;;;;;1.60;0.50;;;23.30;99.90;;;;;;5116072;28;20043;-67
2023/07/10 09:36:55;;;;;;;3.22;1.00;;;23.40;99.90;;;;;;5116045;28;20321;-65
2023/07/10 09:39:27;;;;;;;2.65;0.70;;;23.50;99.90;;;;;;5112767;28;20039;-67
2023/07/10 09:41:52;;;;;;;2.22;0.75;;;23.50;99.90;;;;;;5115890;28;20024;-84
2023/07/10 09:44:20;;;;;;;1.63;0.90;;;23.60;99.90;;;;;;5115183;28;20106;-66
2023/07/10 09:46:47;;;;;;;4.00;0.70;;;23.70;99.90;;;;;;5115844;28;20295;-66
2023/07/10 09:49:22;;;;;;;2.88;0.60;;;23.70;99.90;;;;;;5114181;28;20058;-66
2023/07/10 09:51:56;;;;;;;3.28;0.90;;;23.80;99.90;;;;;;5113658;28;20039;-66
2023/07/10 09:54:22;;;;;;;2.55;0.70;;;24.00;99.90;;;;;;5113086;28;20023;-66
2023/07/10 09:56:51;;;;;;;3.17;0.88;;;24.10;99.90;;;;;;5097036;28;20023;-66
2023/07/10 09:59:25;;;;;;;6.95;0.95;;;24.20;99.90;;;;;;5096415;28;20031;-66
2023/07/10 10:01:53;;;;;;;1.88;0.70;;;24.20;99.90;;;;;;5115532;28;20038;-67
2023/07/10 10:04:26;;;;;;;6.13;1.40;;;24.30;99.90;;;;;;5114637;28;20114;-66
2023/07/10 10:07:14;;;;;;;4.18;1.08;;;24.20;99.90;;;;;;5114893;28;20030;-78
2023/07/10 10:09:40;;;;;;;5.65;1.27;;;24.40;99.90;;;;;;5114790;28;20020;-68
2023/07/10 10:12:23;;;;;;;7.03;1.40;;;24.50;99.90;;;;;;5115289;28;20088;-66
2023/07/10 10:14:54;;;;;;;5.50;0.90;;;24.50;99.90;;;;;;5114668;28;20047;-66
2023/07/10 10:17:24;;;;;;;2.45;0.80;;;24.50;99.90;;;;;;5115083;28;20028;-66
2023/07/10 10:20:05;;;;;;;2.47;0.95;;;24.40;99.90;;;;;;5115083;28;20110;-66
2023/07/10 10:22:32;;;;;;;3.65;0.80;;;24.30;99.90;;;;;;5092873;28;20024;-66
2023/07/10 10:24:58;;;;;;;5.47;1.17;;;24.30;99.90;;;;;;5109223;28;20027;-66
2023/07/10 10:27:32;;;;;;;3.87;1.20;;;24.50;99.90;;;;;;5112296;28;20015;-67
2023/07/10 10:30:19;;;;;;;2.83;1.10;;;24.50;99.90;;;;;;5114657;28;20117;-66
2023/07/10 10:32:58;;;;;;;2.33;0.88;;;24.80;99.90;;;;;;5101637;28;20016;-66
2023/07/10 10:35:48;;;;;;;1.20;0.80;;;24.80;99.90;;;;;;5114345;28;20074;-67
2023/07/10 10:38:35;;;;;;;6.57;1.08;;;25.00;99.90;;;;;;5095135;28;20027;-66
2023/07/10 10:41:03;;;;;;;4.50;1.63;;;24.90;99.90;;;;;;5113565;28;20030;-79
2023/07/10 10:43:33;;;;;;;3.78;1.10;;;25.00;99.90;;;;;;5114258;28;20023;-68
2023/07/10 10:46:15;;;;;;;3.80;0.90;;;25.00;99.90;;;;;;5113592;28;20073;-66
2023/07/10 10:48:56;;;;;;;8.68;0.90;;;25.20;99.90;;;;;;5114404;28;20024;-66
2023/07/10 10:52:01;;;;;;;5.88;0.95;;;25.10;99.90;;;;;;5114071;28;20135;-85
2023/07/10 10:54:39;;;;;;;2.55;0.90;;;25.20;99.90;;;;;;5025999;28;20090;-67
2023/07/10 10:57:22;;;;;;;3.30;1.17;;;25.30;99.90;;;;;;5021036;28;20049;-68
2023/07/10 11:00:14;;;;;;;2.65;0.95;;;25.30;99.90;;;;;;5026338;28;20030;-66
2023/07/10 11:02:42;;;;;;;2.85;0.70;;;25.40;99.90;;;;;;5030439;28;20041;-67
2023/07/10 11:05:36;;;;;;;2.28;0.75;;;25.50;99.90;;;;;;5019894;28;20072;-66
2023/07/10 11:08:10;;;;;;;1.80;0.73;;;25.50;99.90;;;;;;5030263;28;20029;-66
2023/07/10 11:10:40;;;;;;;2.20;0.70;;;25.50;99.90;;;;;;5022819;28;20042;-66
2023/07/10 11:13:17;;;;;;;4.90;1.08;;;25.70;99.90;;;;;;5029970;28;20087;-66
2023/07/10 11:15:43;;;;;;;2.40;0.80;;;25.70;99.90;;;;;;5030858;28;20100;-66
2023/07/10 11:18:13;;;;;;;3.40;0.90;;;25.60;99.90;;;;;;5011172;28;20045;-67
2023/07/10 11:20:39;;;;;;;2.05;0.60;;;25.50;99.90;;;;;;5028550;28;20161;-67
2023/07/10 11:23:25;;;;;;;6.60;1.33;;;25.40;99.90;;;;;;5023491;28;20504;-67
2023/07/10 11:26:00;;;;;;;5.35;1.27;;;25.60;99.90;;;;;;5030869;28;20044;-81
2023/07/10 11:28:28;;;;;;;2.60;0.85;;;25.80;99.90;;;;;;5022546;28;20048;-67
2023/07/10 11:31:18;;;;;;;4.15;1.00;;;26.00;99.90;;;;;;5103617;28;20101;-70
2023/07/10 11:33:48;;;;;;;2.92;0.85;;;25.90;99.90;;;;;;5097194;28;20024;-66
2023/07/10 11:36:15;;;;;;;3.35;0.90;;;25.90;99.90;;;;;;5098422;28;20028;-67
2023/07/10 11:39:05;;;;;;;2.83;0.90;;;25.90;99.90;;;;;;5104314;28;20069;-67
2023/07/10 11:41:43;;;;;;;5.95;1.48;;;25.80;99.90;;;;;;5102545;28;20024;-68
2023/07/10 11:44:32;;;;;;;7.18;1.48;;;25.80;99.90;;;;;;5102083;28;20456;-67
2023/07/10 11:47:01;;;;;;;3.50;0.88;;;25.70;99.90;;;;;;5108331;28;20030;-67
2023/07/10 11:49:34;;;;;;;6.13;0.75;;;25.70;99.90;;;;;;5105060;28;20028;-67
2023/07/10 11:52:15;;;;;;;8.77;1.30;;;25.90;99.90;;;;;;5113056;28;20027;-66
2023/07/10 11:54:47;;;;;;;6.50;1.13;;;26.00;99.90;;;;;;5109736;28;20076;-83
2023/07/10 11:57:27;;;;;;;3.45;1.42;;;25.90;99.90;;;;;;5117404;28;20027;-67
2023/07/10 11:59:56;;;;;;;5.13;0.90;;;25.90;99.90;;;;;;5089729;28;20436;-88
2023/07/10 12:02:44;;;;;;;3.55;0.77;;;25.80;99.90;;;;;;5115647;28;20027;-67
2023/07/10 12:05:29;;;;;;;3.08;1.00;;;25.90;99.90;;;;;;5112488;28;20035;-67
2023/07/10 12:08:02;;;;;;;5.60;1.20;;;26.00;99.90;;;;;;5110289;28;20038;-67
2023/07/10 12:10:31;;;;;;;4.93;1.05;;;26.10;99.90;;;;;;5104785;28;20561;-68
2023/07/10 12:12:58;;;;;;;4.32;0.98;;;25.80;99.90;;;;;;5107134;28;20105;-66
2023/07/10 12:15:26;;;;;;;1.63;0.75;;;25.90;99.90;;;;;;5101336;28;20044;-70
2023/07/10 12:17:53;;;;;;;3.03;0.90;;;26.00;99.90;;;;;;5091119;28;20070;-86
2023/07/10 12:20:31;;;;;;;1.60;0.85;;;26.00;99.90;;;;;;5091114;28;20020;-67
2023/07/10 12:23:09;;;;;;;4.30;1.02;;;26.20;99.90;;;;;;5093503;28;20431;-67
2023/07/10 12:25:35;;;;;;;2.15;0.70;;;26.10;99.90;;;;;;5083080;28;20036;-67
2023/07/10 12:28:12;;;;;;;2.47;0.70;;;26.00;99.90;;;;;;5090007;28;20024;-67
2023/07/10 12:30:39;;;;;;;4.50;1.05;;;26.20;99.90;;;;;;5088062;28;20028;-64
2023/07/10 12:33:33;;;;;;;3.90;1.00;;;26.20;99.90;;;;;;5082539;28;20017;-68
2023/07/10 12:36:06;;;;;;;3.13;1.27;;;26.30;99.90;;;;;;5081403;28;20410;-67
2023/07/10 12:38:32;;;;;;;6.38;0.98;;;26.20;99.90;;;;;;5095958;28;20031;-67
2023/07/10 12:40:58;;;;;;;4.22;0.90;;;26.30;99.90;;;;;;5094458;28;20027;-67
2023/07/10 12:43:27;;;;;;;3.78;1.20;;;26.30;99.90;;;;;;5096200;28;20028;-68
2023/07/10 12:46:01;;;;;;;3.58;0.63;;;26.10;99.90;;;;;;5093710;28;20020;-86
2023/07/10 12:48:31;;;;;;;3.90;1.13;;;26.10;99.90;;;;;;5094994;28;20035;-67
2023/07/10 12:51:01;;;;;;;2.25;0.95;;;26.20;99.90;;;;;;5094006;28;20403;-66
2023/07/10 12:53:35;;;;;;;4.47;1.00;;;26.20;99.90;;;;;;5090895;28;20032;-68
2023/07/10 12:56:22;;;;;;;2.05;0.43;;;26.30;99.90;;;;;;5091650;28;20032;-67
2023/07/10 12:58:48;;;;;;;2.17;0.88;;;26.40;99.90;;;;;;5082797;28;20078;-67
2023/07/10 13:01:29;;;;;;;4.75;0.63;;;26.40;99.90;;;;;;5081933;28;20032;-67
2023/07/10 13:04:05;;;;;;;4.13;0.93;;;26.40;99.90;;;;;;5080904;28;20058;-67